Candia, New Hampshire
Current Conditions -  °F | °C
As of 11:53 AM on Thursday 18 Dec 2014 (Local Time) from KMHT Reporting Station
Overcast Overcast  
Wind Chill: 33°   Ceiling: 3100
Heat Index: 40°   Visibility: 10mi
Dew Point: 29°   Wind: 13mph
Humidity: 65%   Direction: 280°W
Pressure: 29.75"   Gusts: 18mph
Location:  43.08°N, 71.28°W
Report Text: KMHT 181653Z 28011G16KT 10SM OVC031 04/M02 A2975 RMK AO2 SLP091 T00441017
Loading
Personal Weather Stations






























Interactive Weather Map New forecast layout! Learn more

10-Day Weather Forecast

Advertisements
Track Severe Weather on mobile